Cliffland, Iowa
Current Conditions -  °F | °C
As of 12:53 PM on Friday 21 Nov 2014 (Local Time) from KOTM Reporting Station
Clear Clear  
Wind Chill: 24°   Ceiling: Unl
Heat Index: 34°   Visibility: 10mi
Dew Point: 18°   Wind: 15mph
Humidity: 52%   Direction: 150°SSE
Pressure: 30.24"   Gusts: NA
Location:  41.0803°N, 92.3054°W
Report Text: KOTM 211853Z AUTO 15013KT 10SM CLR 01/M08 A3024 RMK AO2 SLP253 T00111078
Loading
Personal Weather Stations






























Interactive Weather Map New forecast layout! Learn more

10-Day Weather Forecast

Advertisements
Track Severe Weather on mobile